sensor_id;sensor_type;location;lat;lon;timestamp;P1;durP1;ratioP1;P2;durP2;ratioP2
22336;SDS011;14992;50.844;4.418;2023-02-28T00:01:57;9.30;;;4.65;;
22336;SDS011;14992;50.844;4.418;2023-02-28T00:04:28;7.25;;;3.90;;
22336;SDS011;14992;50.844;4.418;2023-02-28T00:06:57;7.32;;;4.03;;
22336;SDS011;14992;50.844;4.418;2023-02-28T00:09:25;6.28;;;4.20;;
22336;SDS011;14992;50.844;4.418;2023-02-28T00:11:54;5.70;;;3.85;;
22336;SDS011;14992;50.844;4.418;2023-02-28T00:14:23;7.93;;;4.03;;
22336;SDS011;14992;50.844;4.418;2023-02-28T00:16:52;8.52;;;4.38;;
22336;SDS011;14992;50.844;4.418;2023-02-28T00:19:20;4.80;;;3.95;;
22336;SDS011;14992;50.844;4.418;2023-02-28T00:21:51;7.88;;;4.35;;
22336;SDS011;14992;50.844;4.418;2023-02-28T00:24:19;7.10;;;3.97;;
22336;SDS011;14992;50.844;4.418;2023-02-28T00:26:48;8.13;;;4.57;;
22336;SDS011;14992;50.844;4.418;2023-02-28T00:29:17;7.60;;;4.03;;
22336;SDS011;14992;50.844;4.418;2023-02-28T00:31:46;7.10;;;3.83;;
22336;SDS011;14992;50.844;4.418;2023-02-28T00:34:15;5.22;;;3.30;;
22336;SDS011;14992;50.844;4.418;2023-02-28T00:36:43;5.85;;;4.05;;
22336;SDS011;14992;50.844;4.418;2023-02-28T00:39:14;7.53;;;3.88;;
22336;SDS011;14992;50.844;4.418;2023-02-28T00:41:43;5.93;;;3.88;;
22336;SDS011;14992;50.844;4.418;2023-02-28T00:44:13;2.90;;;2.63;;
22336;SDS011;14992;50.844;4.418;2023-02-28T00:46:42;6.10;;;3.53;;
22336;SDS011;14992;50.844;4.418;2023-02-28T00:49:11;6.95;;;4.40;;
22336;SDS011;14992;50.844;4.418;2023-02-28T00:51:41;5.60;;;4.18;;
22336;SDS011;14992;50.844;4.418;2023-02-28T00:54:10;5.95;;;3.78;;
22336;SDS011;14992;50.844;4.418;2023-02-28T00:56:40;6.57;;;4.03;;
22336;SDS011;14992;50.844;4.418;2023-02-28T00:59:09;7.07;;;3.97;;
22336;SDS011;14992;50.844;4.418;2023-02-28T01:01:38;6.25;;;3.88;;
22336;SDS011;14992;50.844;4.418;2023-02-28T01:04:07;6.47;;;3.70;;
22336;SDS011;14992;50.844;4.418;2023-02-28T01:06:36;5.07;;;4.22;;
22336;SDS011;14992;50.844;4.418;2023-02-28T01:09:05;5.03;;;3.92;;
22336;SDS011;14992;50.844;4.418;2023-02-28T01:11:34;4.90;;;4.18;;
22336;SDS011;14992;50.844;4.418;2023-02-28T01:14:05;7.05;;;4.40;;
22336;SDS011;14992;50.844;4.418;2023-02-28T01:16:34;6.10;;;4.22;;
22336;SDS011;14992;50.844;4.418;2023-02-28T01:19:02;5.57;;;4.55;;
22336;SDS011;14992;50.844;4.418;2023-02-28T01:21:31;7.22;;;4.10;;
22336;SDS011;14992;50.844;4.418;2023-02-28T01:24:02;6.82;;;4.25;;
22336;SDS011;14992;50.844;4.418;2023-02-28T01:26:31;14.68;;;4.20;;
22336;SDS011;14992;50.844;4.418;2023-02-28T01:29:00;6.13;;;3.80;;
22336;SDS011;14992;50.844;4.418;2023-02-28T01:31:31;6.53;;;3.65;;
22336;SDS011;14992;50.844;4.418;2023-02-28T01:33:59;6.47;;;4.22;;
22336;SDS011;14992;50.844;4.418;2023-02-28T01:36:29;6.00;;;4.45;;
22336;SDS011;14992;50.844;4.418;2023-02-28T01:38:58;6.93;;;3.40;;
22336;SDS011;14992;50.844;4.418;2023-02-28T01:41:28;6.70;;;4.72;;
22336;SDS011;14992;50.844;4.418;2023-02-28T01:46:34;6.13;;;4.13;;
22336;SDS011;14992;50.844;4.418;2023-02-28T01:49:05;9.98;;;4.32;;
22336;SDS011;14992;50.844;4.418;2023-02-28T01:51:38;7.78;;;4.07;;
22336;SDS011;14992;50.844;4.418;2023-02-28T01:54:14;7.47;;;4.95;;
22336;SDS011;14992;50.844;4.418;2023-02-28T01:56:47;6.07;;;4.68;;
22336;SDS011;14992;50.844;4.418;2023-02-28T01:59:21;6.90;;;4.38;;
22336;SDS011;14992;50.844;4.418;2023-02-28T02:01:56;5.18;;;4.45;;
22336;SDS011;14992;50.844;4.418;2023-02-28T02:04:25;4.60;;;3.75;;
22336;SDS011;14992;50.844;4.418;2023-02-28T02:07:00;7.75;;;5.15;;
22336;SDS011;14992;50.844;4.418;2023-02-28T02:09:29;6.25;;;4.22;;
22336;SDS011;14992;50.844;4.418;2023-02-28T02:11:58;7.45;;;4.90;;
22336;SDS011;14992;50.844;4.418;2023-02-28T02:14:40;7.78;;;4.60;;
22336;SDS011;14992;50.844;4.418;2023-02-28T02:17:23;6.55;;;4.85;;
22336;SDS011;14992;50.844;4.418;2023-02-28T02:20:06;6.55;;;5.15;;
22336;SDS011;14992;50.844;4.418;2023-02-28T02:25:54;7.95;;;4.72;;
22336;SDS011;14992;50.844;4.418;2023-02-28T02:34:50;8.13;;;4.55;;
22336;SDS011;14992;50.844;4.418;2023-02-28T02:37:32;7.00;;;5.72;;
22336;SDS011;14992;50.844;4.418;2023-02-28T02:40:09;8.93;;;5.15;;
22336;SDS011;14992;50.844;4.418;2023-02-28T02:42:44;7.72;;;4.90;;
22336;SDS011;14992;50.844;4.418;2023-02-28T02:45:22;6.65;;;5.25;;
22336;SDS011;14992;50.844;4.418;2023-02-28T02:47:54;7.30;;;5.30;;
22336;SDS011;14992;50.844;4.418;2023-02-28T02:50:31;9.70;;;5.80;;
22336;SDS011;14992;50.844;4.418;2023-02-28T02:53:04;7.18;;;4.97;;
22336;SDS011;14992;50.844;4.418;2023-02-28T02:55:37;9.32;;;5.55;;
22336;SDS011;14992;50.844;4.418;2023-02-28T02:58:10;7.95;;;5.90;;
22336;SDS011;14992;50.844;4.418;2023-02-28T03:00:44;7.45;;;5.32;;
22336;SDS011;14992;50.844;4.418;2023-02-28T03:03:16;9.43;;;5.55;;
22336;SDS011;14992;50.844;4.418;2023-02-28T03:05:57;7.65;;;5.47;;
22336;SDS011;14992;50.844;4.418;2023-02-28T03:08:27;7.78;;;5.78;;
22336;SDS011;14992;50.844;4.418;2023-02-28T03:10:58;7.18;;;5.20;;
22336;SDS011;14992;50.844;4.418;2023-02-28T03:13:41;6.72;;;5.03;;
22336;SDS011;14992;50.844;4.418;2023-02-28T03:21:34;9.38;;;4.78;;
22336;SDS011;14992;50.844;4.418;2023-02-28T03:24:07;6.78;;;5.50;;
22336;SDS011;14992;50.844;4.418;2023-02-28T03:26:40;8.80;;;6.03;;
22336;SDS011;14992;50.844;4.418;2023-02-28T03:29:13;6.43;;;5.20;;
22336;SDS011;14992;50.844;4.418;2023-02-28T03:31:49;10.23;;;5.63;;
22336;SDS011;14992;50.844;4.418;2023-02-28T03:34:24;9.85;;;5.78;;
22336;SDS011;14992;50.844;4.418;2023-02-28T03:36:59;7.95;;;5.68;;
22336;SDS011;14992;50.844;4.418;2023-02-28T03:39:36;8.98;;;6.10;;
22336;SDS011;14992;50.844;4.418;2023-02-28T03:42:08;10.40;;;5.85;;
22336;SDS011;14992;50.844;4.418;2023-02-28T03:47:11;11.10;;;5.63;;
22336;SDS011;14992;50.844;4.418;2023-02-28T03:49:45;9.93;;;5.95;;
22336;SDS011;14992;50.844;4.418;2023-02-28T03:52:19;9.15;;;6.55;;
22336;SDS011;14992;50.844;4.418;2023-02-28T03:54:52;9.35;;;5.75;;
22336;SDS011;14992;50.844;4.418;2023-02-28T03:57:25;12.23;;;6.75;;
22336;SDS011;14992;50.844;4.418;2023-02-28T04:00:03;9.90;;;6.38;;
22336;SDS011;14992;50.844;4.418;2023-02-28T04:02:38;9.95;;;6.30;;
22336;SDS011;14992;50.844;4.418;2023-02-28T04:05:07;9.68;;;6.22;;
22336;SDS011;14992;50.844;4.418;2023-02-28T04:07:37;10.18;;;5.50;;
22336;SDS011;14992;50.844;4.418;2023-02-28T04:10:06;8.48;;;6.32;;
22336;SDS011;14992;50.844;4.418;2023-02-28T04:12:37;8.15;;;7.13;;
22336;SDS011;14992;50.844;4.418;2023-02-28T04:15:06;12.07;;;6.85;;
22336;SDS011;14992;50.844;4.418;2023-02-28T04:17:37;9.25;;;5.75;;
22336;SDS011;14992;50.844;4.418;2023-02-28T04:20:06;10.05;;;6.05;;
22336;SDS011;14992;50.844;4.418;2023-02-28T04:22:38;11.98;;;6.38;;
22336;SDS011;14992;50.844;4.418;2023-02-28T04:25:07;10.73;;;6.53;;
22336;SDS011;14992;50.844;4.418;2023-02-28T04:27:36;7.85;;;5.82;;
22336;SDS011;14992;50.844;4.418;2023-02-28T04:30:06;10.75;;;6.43;;
22336;SDS011;14992;50.844;4.418;2023-02-28T04:32:35;9.30;;;6.65;;
22336;SDS011;14992;50.844;4.418;2023-02-28T04:35:04;11.40;;;7.03;;
22336;SDS011;14992;50.844;4.418;2023-02-28T04:37:34;10.85;;;6.65;;
22336;SDS011;14992;50.844;4.418;2023-02-28T04:40:05;12.63;;;7.38;;
22336;SDS011;14992;50.844;4.418;2023-02-28T04:42:35;9.65;;;6.97;;
22336;SDS011;14992;50.844;4.418;2023-02-28T04:45:04;9.88;;;6.60;;
22336;SDS011;14992;50.844;4.418;2023-02-28T04:47:37;12.13;;;6.85;;
22336;SDS011;14992;50.844;4.418;2023-02-28T04:50:06;9.68;;;6.80;;
22336;SDS011;14992;50.844;4.418;2023-02-28T04:52:35;14.23;;;7.03;;
22336;SDS011;14992;50.844;4.418;2023-02-28T04:55:06;9.98;;;6.72;;
22336;SDS011;14992;50.844;4.418;2023-02-28T04:57:35;9.57;;;6.55;;
22336;SDS011;14992;50.844;4.418;2023-02-28T05:00:04;10.57;;;6.93;;
22336;SDS011;14992;50.844;4.418;2023-02-28T05:02:38;12.48;;;6.88;;
22336;SDS011;14992;50.844;4.418;2023-02-28T05:05:07;10.65;;;7.57;;
22336;SDS011;14992;50.844;4.418;2023-02-28T05:07:36;9.45;;;6.93;;
22336;SDS011;14992;50.844;4.418;2023-02-28T05:10:07;12.73;;;7.07;;
22336;SDS011;14992;50.844;4.418;2023-02-28T05:12:36;11.25;;;6.65;;
22336;SDS011;14992;50.844;4.418;2023-02-28T05:15:06;13.50;;;7.03;;
22336;SDS011;14992;50.844;4.418;2023-02-28T05:17:36;16.00;;;7.22;;
22336;SDS011;14992;50.844;4.418;2023-02-28T05:20:05;11.90;;;6.32;;
22336;SDS011;14992;50.844;4.418;2023-02-28T05:22:42;8.20;;;6.25;;
22336;SDS011;14992;50.844;4.418;2023-02-28T05:25:13;11.30;;;6.55;;
22336;SDS011;14992;50.844;4.418;2023-02-28T05:27:45;10.10;;;6.75;;
22336;SDS011;14992;50.844;4.418;2023-02-28T05:30:14;12.68;;;7.22;;
22336;SDS011;14992;50.844;4.418;2023-02-28T05:32:43;11.98;;;7.25;;
22336;SDS011;14992;50.844;4.418;2023-02-28T05:35:17;9.55;;;6.43;;
22336;SDS011;14992;50.844;4.418;2023-02-28T05:37:46;9.02;;;6.57;;
22336;SDS011;14992;50.844;4.418;2023-02-28T05:40:16;12.40;;;5.63;;
22336;SDS011;14992;50.844;4.418;2023-02-28T05:42:47;9.75;;;7.53;;
22336;SDS011;14992;50.844;4.418;2023-02-28T05:45:17;9.48;;;7.18;;
22336;SDS011;14992;50.844;4.418;2023-02-28T05:47:46;9.60;;;7.07;;
22336;SDS011;14992;50.844;4.418;2023-02-28T05:50:15;9.77;;;6.30;;
22336;SDS011;14992;50.844;4.418;2023-02-28T05:52:44;13.70;;;6.90;;
22336;SDS011;14992;50.844;4.418;2023-02-28T05:55:18;11.60;;;6.85;;
22336;SDS011;14992;50.844;4.418;2023-02-28T05:57:47;13.93;;;7.07;;
22336;SDS011;14992;50.844;4.418;2023-02-28T06:00:16;9.27;;;6.72;;
22336;SDS011;14992;50.844;4.418;2023-02-28T06:02:45;9.73;;;6.95;;
22336;SDS011;14992;50.844;4.418;2023-02-28T06:05:14;12.60;;;7.43;;
22336;SDS011;14992;50.844;4.418;2023-02-28T06:07:45;9.95;;;7.07;;
22336;SDS011;14992;50.844;4.418;2023-02-28T06:10:13;12.82;;;7.60;;
22336;SDS011;14992;50.844;4.418;2023-02-28T06:12:44;12.25;;;7.43;;
22336;SDS011;14992;50.844;4.418;2023-02-28T06:15:13;10.65;;;6.68;;
22336;SDS011;14992;50.844;4.418;2023-02-28T06:17:43;10.95;;;8.40;;
22336;SDS011;14992;50.844;4.418;2023-02-28T06:20:12;11.00;;;6.55;;
22336;SDS011;14992;50.844;4.418;2023-02-28T06:22:41;12.70;;;7.03;;
22336;SDS011;14992;50.844;4.418;2023-02-28T06:25:10;9.80;;;6.80;;
22336;SDS011;14992;50.844;4.418;2023-02-28T06:27:39;11.00;;;6.90;;
22336;SDS011;14992;50.844;4.418;2023-02-28T06:30:11;10.88;;;7.15;;
22336;SDS011;14992;50.844;4.418;2023-02-28T06:32:40;10.75;;;7.25;;
22336;SDS011;14992;50.844;4.418;2023-02-28T06:35:09;10.48;;;7.75;;
22336;SDS011;14992;50.844;4.418;2023-02-28T06:37:38;14.77;;;7.10;;
22336;SDS011;14992;50.844;4.418;2023-02-28T06:40:08;9.65;;;6.63;;
22336;SDS011;14992;50.844;4.418;2023-02-28T06:42:38;9.00;;;6.70;;
22336;SDS011;14992;50.844;4.418;2023-02-28T06:45:07;8.57;;;6.70;;
22336;SDS011;14992;50.844;4.418;2023-02-28T06:47:38;13.13;;;6.68;;
22336;SDS011;14992;50.844;4.418;2023-02-28T06:50:10;11.25;;;7.15;;
22336;SDS011;14992;50.844;4.418;2023-02-28T06:52:39;13.45;;;6.88;;
22336;SDS011;14992;50.844;4.418;2023-02-28T06:55:08;11.82;;;7.88;;
22336;SDS011;14992;50.844;4.418;2023-02-28T06:57:37;11.70;;;7.20;;
22336;SDS011;14992;50.844;4.418;2023-02-28T07:00:07;9.70;;;6.32;;
22336;SDS011;14992;50.844;4.418;2023-02-28T07:02:38;6.68;;;5.63;;
22336;SDS011;14992;50.844;4.418;2023-02-28T07:05:07;9.63;;;6.55;;
22336;SDS011;14992;50.844;4.418;2023-02-28T07:07:36;9.25;;;6.70;;
22336;SDS011;14992;50.844;4.418;2023-02-28T07:10:08;11.00;;;6.93;;
22336;SDS011;14992;50.844;4.418;2023-02-28T07:12:38;10.13;;;7.03;;
22336;SDS011;14992;50.844;4.418;2023-02-28T07:15:07;10.75;;;6.93;;
22336;SDS011;14992;50.844;4.418;2023-02-28T07:17:37;8.57;;;6.47;;
22336;SDS011;14992;50.844;4.418;2023-02-28T07:20:07;23.60;;;11.57;;
22336;SDS011;14992;50.844;4.418;2023-02-28T07:22:37;14.43;;;8.13;;
22336;SDS011;14992;50.844;4.418;2023-02-28T07:25:07;12.70;;;6.72;;
22336;SDS011;14992;50.844;4.418;2023-02-28T07:27:36;10.05;;;6.30;;
22336;SDS011;14992;50.844;4.418;2023-02-28T07:30:06;9.60;;;5.75;;
22336;SDS011;14992;50.844;4.418;2023-02-28T07:32:35;7.85;;;5.88;;
22336;SDS011;14992;50.844;4.418;2023-02-28T07:35:06;7.85;;;5.50;;
22336;SDS011;14992;50.844;4.418;2023-02-28T07:37:36;7.07;;;5.32;;
22336;SDS011;14992;50.844;4.418;2023-02-28T07:40:05;13.35;;;6.10;;
22336;SDS011;14992;50.844;4.418;2023-02-28T07:42:36;7.90;;;5.75;;
22336;SDS011;14992;50.844;4.418;2023-02-28T07:45:05;9.02;;;6.13;;
22336;SDS011;14992;50.844;4.418;2023-02-28T07:47:35;12.93;;;5.90;;
22336;SDS011;14992;50.844;4.418;2023-02-28T07:50:06;9.43;;;5.18;;
22336;SDS011;14992;50.844;4.418;2023-02-28T07:52:36;11.85;;;5.38;;
22336;SDS011;14992;50.844;4.418;2023-02-28T07:55:06;12.15;;;6.95;;
22336;SDS011;14992;50.844;4.418;2023-02-28T07:57:36;11.25;;;5.95;;
22336;SDS011;14992;50.844;4.418;2023-02-28T08:00:06;9.75;;;5.68;;
22336;SDS011;14992;50.844;4.418;2023-02-28T08:02:37;12.32;;;5.88;;
22336;SDS011;14992;50.844;4.418;2023-02-28T08:05:07;6.68;;;5.07;;
22336;SDS011;14992;50.844;4.418;2023-02-28T08:07:37;11.75;;;5.45;;
22336;SDS011;14992;50.844;4.418;2023-02-28T08:10:06;13.48;;;5.57;;
22336;SDS011;14992;50.844;4.418;2023-02-28T08:12:36;8.25;;;5.25;;
22336;SDS011;14992;50.844;4.418;2023-02-28T08:15:06;10.85;;;5.25;;
22336;SDS011;14992;50.844;4.418;2023-02-28T08:17:35;7.18;;;5.57;;
22336;SDS011;14992;50.844;4.418;2023-02-28T08:20:05;6.20;;;4.68;;
22336;SDS011;14992;50.844;4.418;2023-02-28T08:22:37;6.45;;;3.90;;
22336;SDS011;14992;50.844;4.418;2023-02-28T08:25:06;6.45;;;4.50;;
22336;SDS011;14992;50.844;4.418;2023-02-28T08:27:36;7.63;;;4.03;;
22336;SDS011;14992;50.844;4.418;2023-02-28T08:30:05;5.80;;;4.35;;
22336;SDS011;14992;50.844;4.418;2023-02-28T08:32:35;6.13;;;3.50;;
22336;SDS011;14992;50.844;4.418;2023-02-28T08:35:04;8.35;;;5.35;;
22336;SDS011;14992;50.844;4.418;2023-02-28T08:37:34;5.72;;;3.90;;
22336;SDS011;14992;50.844;4.418;2023-02-28T08:40:05;7.18;;;3.95;;
22336;SDS011;14992;50.844;4.418;2023-02-28T08:42:35;6.47;;;3.97;;
22336;SDS011;14992;50.844;4.418;2023-02-28T08:45:04;6.90;;;4.45;;
22336;SDS011;14992;50.844;4.418;2023-02-28T08:47:34;7.85;;;4.43;;
22336;SDS011;14992;50.844;4.418;2023-02-28T08:50:03;8.02;;;3.95;;
22336;SDS011;14992;50.844;4.418;2023-02-28T08:52:33;3.78;;;3.17;;
22336;SDS011;14992;50.844;4.418;2023-02-28T08:55:01;5.90;;;4.57;;
22336;SDS011;14992;50.844;4.418;2023-02-28T08:57:32;8.75;;;3.67;;
22336;SDS011;14992;50.844;4.418;2023-02-28T09:00:00;4.28;;;3.45;;
22336;SDS011;14992;50.844;4.418;2023-02-28T09:02:31;6.40;;;3.40;;
22336;SDS011;14992;50.844;4.418;2023-02-28T09:05:00;10.82;;;3.92;;
22336;SDS011;14992;50.844;4.418;2023-02-28T09:07:29;6.03;;;4.28;;
22336;SDS011;14992;50.844;4.418;2023-02-28T09:09:58;5.03;;;3.50;;
22336;SDS011;14992;50.844;4.418;2023-02-28T09:12:27;6.38;;;3.05;;
22336;SDS011;14992;50.844;4.418;2023-02-28T09:15:03;5.10;;;3.28;;
22336;SDS011;14992;50.844;4.418;2023-02-28T09:17:33;4.32;;;3.05;;
22336;SDS011;14992;50.844;4.418;2023-02-28T09:20:01;4.60;;;3.00;;
22336;SDS011;14992;50.844;4.418;2023-02-28T09:22:30;4.43;;;3.58;;
22336;SDS011;14992;50.844;4.418;2023-02-28T09:24:59;5.05;;;2.72;;
22336;SDS011;14992;50.844;4.418;2023-02-28T09:27:28;4.32;;;2.85;;
22336;SDS011;14992;50.844;4.418;2023-02-28T09:29:58;4.07;;;2.50;;
22336;SDS011;14992;50.844;4.418;2023-02-28T09:32:27;3.53;;;2.40;;
22336;SDS011;14992;50.844;4.418;2023-02-28T09:34:56;6.20;;;3.22;;
22336;SDS011;14992;50.844;4.418;2023-02-28T09:37:25;4.80;;;3.00;;
22336;SDS011;14992;50.844;4.418;2023-02-28T09:39:56;4.38;;;3.10;;
22336;SDS011;14992;50.844;4.418;2023-02-28T09:42:27;4.88;;;2.85;;
22336;SDS011;14992;50.844;4.418;2023-02-28T09:45:02;4.65;;;2.60;;
22336;SDS011;14992;50.844;4.418;2023-02-28T09:47:36;3.45;;;2.90;;
22336;SDS011;14992;50.844;4.418;2023-02-28T09:50:12;4.70;;;3.17;;
22336;SDS011;14992;50.844;4.418;2023-02-28T09:52:51;2.60;;;2.20;;
22336;SDS011;14992;50.844;4.418;2023-02-28T09:55:22;2.78;;;1.88;;
22336;SDS011;14992;50.844;4.418;2023-02-28T09:58:08;5.22;;;2.17;;
22336;SDS011;14992;50.844;4.418;2023-02-28T10:00:51;4.72;;;2.15;;
22336;SDS011;14992;50.844;4.418;2023-02-28T10:03:29;2.05;;;1.85;;
22336;SDS011;14992;50.844;4.418;2023-02-28T10:06:05;3.63;;;2.33;;
22336;SDS011;14992;50.844;4.418;2023-02-28T10:08:40;2.55;;;1.92;;
22336;SDS011;14992;50.844;4.418;2023-02-28T10:11:18;2.35;;;2.15;;
22336;SDS011;14992;50.844;4.418;2023-02-28T10:13:51;3.90;;;2.60;;
22336;SDS011;14992;50.844;4.418;2023-02-28T10:16:30;3.55;;;2.60;;
22336;SDS011;14992;50.844;4.418;2023-02-28T10:19:03;4.07;;;1.95;;
22336;SDS011;14992;50.844;4.418;2023-02-28T10:21:35;6.18;;;2.72;;
22336;SDS011;14992;50.844;4.418;2023-02-28T10:24:11;3.03;;;1.65;;
22336;SDS011;14992;50.844;4.418;2023-02-28T10:26:47;2.50;;;2.13;;
22336;SDS011;14992;50.844;4.418;2023-02-28T10:29:18;2.75;;;2.08;;
22336;SDS011;14992;50.844;4.418;2023-02-28T10:31:48;3.35;;;2.30;;
22336;SDS011;14992;50.844;4.418;2023-02-28T10:34:17;2.83;;;1.70;;
22336;SDS011;14992;50.844;4.418;2023-02-28T10:36:46;5.68;;;2.03;;
22336;SDS011;14992;50.844;4.418;2023-02-28T10:39:34;2.55;;;2.13;;
22336;SDS011;14992;50.844;4.418;2023-02-28T10:42:05;3.13;;;2.08;;
22336;SDS011;14992;50.844;4.418;2023-02-28T10:44:47;1.83;;;1.65;;
22336;SDS011;14992;50.844;4.418;2023-02-28T10:47:18;3.88;;;1.80;;
22336;SDS011;14992;50.844;4.418;2023-02-28T10:49:48;2.67;;;2.10;;
22336;SDS011;14992;50.844;4.418;2023-02-28T10:52:32;3.70;;;1.92;;
22336;SDS011;14992;50.844;4.418;2023-02-28T10:55:14;2.25;;;1.10;;
22336;SDS011;14992;50.844;4.418;2023-02-28T10:57:47;3.08;;;1.65;;
22336;SDS011;14992;50.844;4.418;2023-02-28T11:00:17;2.70;;;1.70;;
22336;SDS011;14992;50.844;4.418;2023-02-28T11:02:49;3.80;;;1.58;;
22336;SDS011;14992;50.844;4.418;2023-02-28T11:05:24;2.78;;;2.08;;
22336;SDS011;14992;50.844;4.418;2023-02-28T11:07:59;2.28;;;1.55;;
22336;SDS011;14992;50.844;4.418;2023-02-28T11:10:34;2.47;;;1.60;;
22336;SDS011;14992;50.844;4.418;2023-02-28T11:13:02;2.83;;;1.77;;
22336;SDS011;14992;50.844;4.418;2023-02-28T11:15:32;5.00;;;1.67;;
22336;SDS011;14992;50.844;4.418;2023-02-28T11:18:06;3.85;;;1.98;;
22336;SDS011;14992;50.844;4.418;2023-02-28T11:20:49;2.97;;;1.75;;
22336;SDS011;14992;50.844;4.418;2023-02-28T11:23:19;2.92;;;1.83;;
22336;SDS011;14992;50.844;4.418;2023-02-28T11:25:50;3.83;;;1.52;;
22336;SDS011;14992;50.844;4.418;2023-02-28T11:28:25;4.20;;;1.45;;
22336;SDS011;14992;50.844;4.418;2023-02-28T11:30:59;2.17;;;1.60;;
22336;SDS011;14992;50.844;4.418;2023-02-28T11:33:37;4.00;;;1.83;;
22336;SDS011;14992;50.844;4.418;2023-02-28T11:36:12;2.38;;;1.48;;
22336;SDS011;14992;50.844;4.418;2023-02-28T11:38:44;3.13;;;2.28;;
22336;SDS011;14992;50.844;4.418;2023-02-28T11:41:17;3.35;;;2.25;;
22336;SDS011;14992;50.844;4.418;2023-02-28T11:44:07;2.65;;;2.20;;
22336;SDS011;14992;50.844;4.418;2023-02-28T11:46:47;2.80;;;2.30;;
22336;SDS011;14992;50.844;4.418;2023-02-28T11:49:25;2.20;;;2.00;;
22336;SDS011;14992;50.844;4.418;2023-02-28T11:52:05;2.58;;;1.90;;
22336;SDS011;14992;50.844;4.418;2023-02-28T11:55:00;2.25;;;1.88;;
22336;SDS011;14992;50.844;4.418;2023-02-28T11:57:46;2.72;;;1.95;;
22336;SDS011;14992;50.844;4.418;2023-02-28T12:00:35;5.53;;;2.90;;
22336;SDS011;14992;50.844;4.418;2023-02-28T12:03:12;2.17;;;1.65;;
22336;SDS011;14992;50.844;4.418;2023-02-28T12:05:49;2.50;;;1.75;;
22336;SDS011;14992;50.844;4.418;2023-02-28T12:08:27;4.95;;;2.28;;
22336;SDS011;14992;50.844;4.418;2023-02-28T12:11:18;3.88;;;2.22;;
22336;SDS011;14992;50.844;4.418;2023-02-28T12:16:57;3.97;;;2.38;;
22336;SDS011;14992;50.844;4.418;2023-02-28T12:19:35;2.33;;;1.77;;
22336;SDS011;14992;50.844;4.418;2023-02-28T12:25:18;2.03;;;1.50;;
22336;SDS011;14992;50.844;4.418;2023-02-28T12:27:58;3.20;;;1.90;;
22336;SDS011;14992;50.844;4.418;2023-02-28T12:30:28;2.90;;;1.63;;
22336;SDS011;14992;50.844;4.418;2023-02-28T12:33:01;4.47;;;2.20;;
22336;SDS011;14992;50.844;4.418;2023-02-28T12:35:35;2.20;;;2.00;;
22336;SDS011;14992;50.844;4.418;2023-02-28T12:38:10;1.67;;;1.58;;
22336;SDS011;14992;50.844;4.418;2023-02-28T12:40:47;5.88;;;2.42;;
22336;SDS011;14992;50.844;4.418;2023-02-28T12:43:19;3.25;;;1.90;;
22336;SDS011;14992;50.844;4.418;2023-02-28T12:45:52;3.20;;;1.88;;
22336;SDS011;14992;50.844;4.418;2023-02-28T12:48:25;4.45;;;2.20;;
22336;SDS011;14992;50.844;4.418;2023-02-28T12:50:59;2.65;;;2.08;;
22336;SDS011;14992;50.844;4.418;2023-02-28T12:53:32;2.40;;;1.80;;
22336;SDS011;14992;50.844;4.418;2023-02-28T12:56:13;2.38;;;1.65;;
22336;SDS011;14992;50.844;4.418;2023-02-28T12:58:47;2.25;;;2.03;;
22336;SDS011;14992;50.844;4.418;2023-02-28T13:10:41;3.60;;;2.33;;
22336;SDS011;14992;50.844;4.418;2023-02-28T13:13:15;3.75;;;2.42;;
22336;SDS011;14992;50.844;4.418;2023-02-28T13:15:58;4.40;;;2.45;;
22336;SDS011;14992;50.844;4.418;2023-02-28T13:18:30;5.53;;;2.50;;
22336;SDS011;14992;50.844;4.418;2023-02-28T13:21:04;2.88;;;2.58;;
22336;SDS011;14992;50.844;4.418;2023-02-28T13:29:38;1.70;;;1.60;;
22336;SDS011;14992;50.844;4.418;2023-02-28T13:32:18;3.55;;;2.35;;
22336;SDS011;14992;50.844;4.418;2023-02-28T13:38:21;2.30;;;1.70;;
22336;SDS011;14992;50.844;4.418;2023-02-28T13:44:22;1.85;;;1.52;;
22336;SDS011;14992;50.844;4.418;2023-02-28T13:50:22;2.72;;;2.17;;
22336;SDS011;14992;50.844;4.418;2023-02-28T13:52:58;3.45;;;1.95;;
22336;SDS011;14992;50.844;4.418;2023-02-28T13:55:45;2.00;;;1.70;;
22336;SDS011;14992;50.844;4.418;2023-02-28T13:58:22;2.80;;;2.15;;
22336;SDS011;14992;50.844;4.418;2023-02-28T14:07:24;2.10;;;1.73;;
22336;SDS011;14992;50.844;4.418;2023-02-28T14:10:03;5.55;;;2.42;;
22336;SDS011;14992;50.844;4.418;2023-02-28T14:12:51;3.20;;;2.40;;
22336;SDS011;14992;50.844;4.418;2023-02-28T14:15:34;6.60;;;2.10;;
22336;SDS011;14992;50.844;4.418;2023-02-28T14:18:18;5.72;;;1.85;;
22336;SDS011;14992;50.844;4.418;2023-02-28T14:20:55;3.35;;;2.05;;
22336;SDS011;14992;50.844;4.418;2023-02-28T14:26:53;2.35;;;1.63;;
22336;SDS011;14992;50.844;4.418;2023-02-28T14:29:56;2.30;;;1.90;;
22336;SDS011;14992;50.844;4.418;2023-02-28T14:32:44;2.60;;;1.95;;
22336;SDS011;14992;50.844;4.418;2023-02-28T14:35:27;2.40;;;1.98;;
22336;SDS011;14992;50.844;4.418;2023-02-28T14:38:17;3.03;;;2.50;;
22336;SDS011;14992;50.844;4.418;2023-02-28T14:40:51;3.33;;;2.00;;
22336;SDS011;14992;50.844;4.418;2023-02-28T14:43:23;3.33;;;2.08;;
22336;SDS011;14992;50.844;4.418;2023-02-28T14:45:54;4.13;;;2.15;;
22336;SDS011;14992;50.844;4.418;2023-02-28T14:48:26;9.77;;;2.50;;
22336;SDS011;14992;50.844;4.418;2023-02-28T14:50:56;4.35;;;2.42;;
22336;SDS011;14992;50.844;4.418;2023-02-28T14:53:27;3.22;;;2.08;;
22336;SDS011;14992;50.844;4.418;2023-02-28T14:55:59;4.03;;;2.08;;
22336;SDS011;14992;50.844;4.418;2023-02-28T14:58:30;4.40;;;2.83;;
22336;SDS011;14992;50.844;4.418;2023-02-28T15:01:01;3.03;;;2.55;;
22336;SDS011;14992;50.844;4.418;2023-02-28T15:03:32;4.00;;;2.50;;
22336;SDS011;14992;50.844;4.418;2023-02-28T15:06:03;2.70;;;2.33;;
22336;SDS011;14992;50.844;4.418;2023-02-28T15:08:33;2.70;;;2.42;;
22336;SDS011;14992;50.844;4.418;2023-02-28T15:11:06;3.05;;;2.30;;
22336;SDS011;14992;50.844;4.418;2023-02-28T15:13:38;3.22;;;2.70;;
22336;SDS011;14992;50.844;4.418;2023-02-28T15:16:09;5.47;;;2.67;;
22336;SDS011;14992;50.844;4.418;2023-02-28T15:18:43;3.03;;;2.72;;
22336;SDS011;14992;50.844;4.418;2023-02-28T15:21:15;3.58;;;2.80;;
22336;SDS011;14992;50.844;4.418;2023-02-28T15:23:46;5.32;;;2.45;;
22336;SDS011;14992;50.844;4.418;2023-02-28T15:26:22;4.50;;;4.10;;
22336;SDS011;14992;50.844;4.418;2023-02-28T15:28:58;3.72;;;2.47;;
22336;SDS011;14992;50.844;4.418;2023-02-28T15:34:18;3.10;;;2.13;;
22336;SDS011;14992;50.844;4.418;2023-02-28T15:36:50;3.45;;;2.22;;
22336;SDS011;14992;50.844;4.418;2023-02-28T15:39:20;5.63;;;2.50;;
22336;SDS011;14992;50.844;4.418;2023-02-28T15:41:55;3.10;;;2.20;;
22336;SDS011;14992;50.844;4.418;2023-02-28T15:44:38;2.95;;;2.30;;
22336;SDS011;14992;50.844;4.418;2023-02-28T15:47:14;3.70;;;3.13;;
22336;SDS011;14992;50.844;4.418;2023-02-28T15:49:47;4.93;;;2.53;;
22336;SDS011;14992;50.844;4.418;2023-02-28T15:52:18;2.92;;;2.72;;
22336;SDS011;14992;50.844;4.418;2023-02-28T15:54:50;3.63;;;2.80;;
22336;SDS011;14992;50.844;4.418;2023-02-28T15:57:22;4.93;;;2.50;;
22336;SDS011;14992;50.844;4.418;2023-02-28T15:59:54;4.57;;;2.25;;
22336;SDS011;14992;50.844;4.418;2023-02-28T16:02:29;3.42;;;2.55;;
22336;SDS011;14992;50.844;4.418;2023-02-28T16:05:01;4.10;;;3.10;;
22336;SDS011;14992;50.844;4.418;2023-02-28T16:07:55;4.45;;;2.65;;
22336;SDS011;14992;50.844;4.418;2023-02-28T16:10:25;5.95;;;2.58;;
22336;SDS011;14992;50.844;4.418;2023-02-28T16:13:01;4.45;;;2.60;;
22336;SDS011;14992;50.844;4.418;2023-02-28T16:15:31;4.32;;;2.88;;
22336;SDS011;14992;50.844;4.418;2023-02-28T16:18:08;3.95;;;2.25;;
22336;SDS011;14992;50.844;4.418;2023-02-28T16:20:39;2.75;;;2.03;;
22336;SDS011;14992;50.844;4.418;2023-02-28T16:23:08;4.18;;;2.42;;